createdAt,value
2022-12-24T19:08:37.747Z,48.35
2022-12-24T19:10:58.369Z,49.90
2022-12-24T19:13:25.878Z,50.00
2022-12-24T19:15:54.487Z,51.17
2022-12-24T19:18:21.966Z,51.90
2022-12-24T19:20:49.466Z,50.83
2022-12-24T19:23:16.902Z,51.78
2022-12-24T19:25:44.220Z,51.00
2022-12-24T19:28:14.310Z,52.70
2022-12-24T19:30:42.954Z,52.63
2022-12-24T19:33:10.717Z,52.50
2022-12-24T19:35:38.466Z,50.80
2022-12-24T19:38:08.210Z,47.03
2022-12-24T19:40:37.582Z,46.95
2022-12-24T19:43:05.866Z,47.92
2022-12-24T19:45:33.204Z,49.58
2022-12-24T19:48:00.590Z,52.75
2022-12-24T19:50:27.996Z,51.58
2022-12-24T19:52:55.773Z,53.50
2022-12-24T19:55:23.299Z,52.17
2022-12-24T19:57:54.956Z,53.65
2022-12-24T20:00:22.396Z,53.70
2022-12-24T20:02:49.918Z,54.17
2022-12-24T20:05:17.547Z,53.55
2022-12-24T20:07:48.076Z,52.83
2022-12-24T20:10:18.451Z,53.92
2022-12-24T20:12:45.869Z,52.95
2022-12-24T20:15:13.185Z,52.80
2022-12-24T20:17:40.545Z,52.42
2022-12-24T20:20:08.443Z,51.70
2022-12-24T20:22:35.788Z,49.63
2022-12-24T20:25:03.183Z,46.75
2022-12-24T20:27:30.700Z,46.60
2022-12-24T20:29:58.115Z,46.17
2022-12-24T20:32:25.477Z,45.15
2022-12-24T20:34:52.814Z,46.40
2022-12-24T20:37:20.136Z,44.08
2022-12-24T20:39:47.439Z,44.47
2022-12-24T20:42:14.896Z,43.22
2022-12-24T20:44:42.420Z,42.90
2022-12-24T20:47:09.685Z,43.00
2022-12-24T20:49:37.018Z,40.72
2022-12-24T20:52:04.580Z,40.78
2022-12-24T20:54:32.009Z,39.80
2022-12-24T20:56:59.385Z,40.55
2022-12-24T20:59:26.815Z,40.42
2022-12-24T21:01:54.336Z,40.13
2022-12-24T21:04:21.829Z,38.08
2022-12-24T21:06:49.153Z,38.45
2022-12-24T21:09:16.527Z,38.58
2022-12-24T21:11:49.667Z,39.97
2022-12-24T21:14:22.519Z,37.83
2022-12-24T21:16:50.977Z,38.67
2022-12-24T21:19:22.284Z,38.33
2022-12-24T21:21:52.517Z,39.97
2022-12-24T21:24:19.956Z,40.47
2022-12-24T21:26:47.823Z,39.92
2022-12-24T21:29:18.274Z,38.33
2022-12-24T21:31:47.466Z,38.75
2022-12-24T21:34:14.976Z,39.60
2022-12-24T21:36:42.680Z,40.20
2022-12-24T21:39:10.103Z,40.88
2022-12-24T21:41:37.443Z,40.10
2022-12-24T21:44:04.991Z,40.03
2022-12-24T21:46:32.445Z,38.90
2022-12-24T21:49:18.264Z,39.17
2022-12-24T21:51:48.705Z,41.13
2022-12-24T21:54:31.218Z,40.72
2022-12-24T21:57:19.756Z,41.43
2022-12-24T21:59:49.997Z,41.33
2022-12-24T22:02:17.717Z,42.77
2022-12-24T22:04:45.477Z,39.47
2022-12-24T22:07:43.769Z,40.97
2022-12-24T22:10:33.361Z,41.70
2022-12-24T22:13:06.139Z,39.75
2022-12-24T22:15:35.009Z,41.27
2022-12-24T22:18:02.740Z,41.55
2022-12-24T22:20:30.204Z,38.72
2022-12-24T22:22:57.613Z,41.47
2022-12-24T22:25:24.983Z,39.58
2022-12-24T22:27:52.468Z,39.40
2022-12-24T22:30:19.976Z,38.73
2022-12-24T22:32:48.684Z,37.35
2022-12-24T22:35:16.443Z,38.55
2022-12-24T22:37:44.177Z,36.42
2022-12-24T22:40:12.788Z,36.78
2022-12-24T22:42:41.692Z,35.47
2022-12-24T22:45:13.375Z,35.83
2022-12-24T22:47:43.086Z,35.30
2022-12-24T22:50:10.791Z,34.35
2022-12-24T22:52:38.223Z,33.75
2022-12-24T22:55:08.816Z,34.95
2022-12-24T22:57:36.140Z,33.23
2022-12-24T23:00:09.675Z,32.00
2022-12-24T23:02:37.207Z,32.97
2022-12-24T23:05:05.062Z,32.17
2022-12-24T23:07:32.391Z,31.65
2022-12-24T23:09:59.939Z,31.48
2022-12-24T23:12:45.877Z,30.55
2022-12-24T23:15:13.268Z,31.45
2022-12-24T23:17:40.609Z,30.80
2022-12-24T23:20:08.682Z,30.20
2022-12-24T23:22:36.127Z,30.00
2022-12-24T23:25:03.961Z,30.20
2022-12-24T23:27:31.284Z,29.45
2022-12-24T23:29:58.697Z,29.90
2022-12-24T23:32:26.075Z,30.73
2022-12-24T23:34:53.498Z,31.40
2022-12-24T23:37:20.835Z,32.63
2022-12-24T23:39:48.313Z,31.45
2022-12-24T23:42:15.666Z,30.38
2022-12-24T23:44:43.049Z,30.10
2022-12-24T23:47:10.447Z,30.67
2022-12-24T23:49:37.774Z,29.88
2022-12-24T23:52:05.318Z,29.13
2022-12-24T23:54:32.621Z,27.83
2022-12-24T23:57:02.805Z,28.00
2022-12-24T23:59:32.846Z,27.40
